sensor_id;sensor_type;location;lat;lon;timestamp;P1;durP1;ratioP1;P2;durP2;ratioP2
12703;SDS011;6416;52.182;7.650;2022-10-26T00:00:45;4.07;;;3.73;;
12703;SDS011;6416;52.182;7.650;2022-10-26T00:03:11;6.43;;;4.60;;
12703;SDS011;6416;52.182;7.650;2022-10-26T00:05:37;4.63;;;4.20;;
12703;SDS011;6416;52.182;7.650;2022-10-26T00:08:02;5.63;;;4.40;;
12703;SDS011;6416;52.182;7.650;2022-10-26T00:10:28;4.80;;;4.40;;
12703;SDS011;6416;52.182;7.650;2022-10-26T00:12:54;4.97;;;4.20;;
12703;SDS011;6416;52.182;7.650;2022-10-26T00:15:19;4.73;;;4.27;;
12703;SDS011;6416;52.182;7.650;2022-10-26T00:17:45;5.10;;;4.60;;
12703;SDS011;6416;52.182;7.650;2022-10-26T00:20:11;5.87;;;4.17;;
12703;SDS011;6416;52.182;7.650;2022-10-26T00:22:37;5.33;;;4.57;;
12703;SDS011;6416;52.182;7.650;2022-10-26T00:25:02;4.73;;;3.80;;
12703;SDS011;6416;52.182;7.650;2022-10-26T00:27:28;4.37;;;3.93;;
12703;SDS011;6416;52.182;7.650;2022-10-26T00:29:54;4.60;;;4.20;;
12703;SDS011;6416;52.182;7.650;2022-10-26T00:32:19;4.27;;;3.97;;
12703;SDS011;6416;52.182;7.650;2022-10-26T00:34:45;5.87;;;3.77;;
12703;SDS011;6416;52.182;7.650;2022-10-26T00:37:10;5.27;;;4.13;;
12703;SDS011;6416;52.182;7.650;2022-10-26T00:39:36;5.73;;;4.10;;
12703;SDS011;6416;52.182;7.650;2022-10-26T00:42:01;4.03;;;3.70;;
12703;SDS011;6416;52.182;7.650;2022-10-26T00:47:44;4.47;;;4.07;;
12703;SDS011;6416;52.182;7.650;2022-10-26T00:50:21;4.30;;;3.90;;
12703;SDS011;6416;52.182;7.650;2022-10-26T00:52:50;4.30;;;3.90;;
12703;SDS011;6416;52.182;7.650;2022-10-26T00:55:17;4.70;;;4.30;;
12703;SDS011;6416;52.182;7.650;2022-10-26T00:57:47;4.87;;;4.37;;
12703;SDS011;6416;52.182;7.650;2022-10-26T01:00:15;4.57;;;4.17;;
12703;SDS011;6416;52.182;7.650;2022-10-26T01:02:41;5.17;;;4.37;;
12703;SDS011;6416;52.182;7.650;2022-10-26T01:05:09;4.27;;;3.90;;
12703;SDS011;6416;52.182;7.650;2022-10-26T01:07:36;4.83;;;4.43;;
12703;SDS011;6416;52.182;7.650;2022-10-26T01:10:01;5.13;;;4.23;;
12703;SDS011;6416;52.182;7.650;2022-10-26T01:12:27;4.17;;;3.87;;
12703;SDS011;6416;52.182;7.650;2022-10-26T01:14:53;4.83;;;4.33;;
12703;SDS011;6416;52.182;7.650;2022-10-26T01:25:54;4.50;;;4.10;;
12703;SDS011;6416;52.182;7.650;2022-10-26T01:28:52;6.43;;;4.63;;
12703;SDS011;6416;52.182;7.650;2022-10-26T01:31:33;4.57;;;4.17;;
12703;SDS011;6416;52.182;7.650;2022-10-26T01:34:12;5.80;;;4.13;;
12703;SDS011;6416;52.182;7.650;2022-10-26T01:36:59;4.83;;;4.33;;
12703;SDS011;6416;52.182;7.650;2022-10-26T01:39:37;4.47;;;4.07;;
12703;SDS011;6416;52.182;7.650;2022-10-26T01:42:09;4.17;;;3.80;;
12703;SDS011;6416;52.182;7.650;2022-10-26T01:44:37;4.53;;;4.10;;
12703;SDS011;6416;52.182;7.650;2022-10-26T01:47:08;6.40;;;4.90;;
12703;SDS011;6416;52.182;7.650;2022-10-26T01:49:41;5.43;;;4.67;;
12703;SDS011;6416;52.182;7.650;2022-10-26T01:52:10;4.57;;;4.17;;
12703;SDS011;6416;52.182;7.650;2022-10-26T01:54:36;4.97;;;4.13;;
12703;SDS011;6416;52.182;7.650;2022-10-26T01:57:03;4.53;;;3.93;;
12703;SDS011;6416;52.182;7.650;2022-10-26T02:07:59;5.27;;;3.93;;
12703;SDS011;6416;52.182;7.650;2022-10-26T02:10:47;4.93;;;3.70;;
12703;SDS011;6416;52.182;7.650;2022-10-26T02:13:20;4.33;;;3.93;;
12703;SDS011;6416;52.182;7.650;2022-10-26T02:18:41;3.67;;;3.37;;
12703;SDS011;6416;52.182;7.650;2022-10-26T02:21:16;7.57;;;4.07;;
12703;SDS011;6416;52.182;7.650;2022-10-26T02:23:46;5.03;;;3.80;;
12703;SDS011;6416;52.182;7.650;2022-10-26T02:26:14;4.00;;;3.60;;
12703;SDS011;6416;52.182;7.650;2022-10-26T02:28:43;4.97;;;3.80;;
12703;SDS011;6416;52.182;7.650;2022-10-26T02:31:12;4.13;;;3.77;;
12703;SDS011;6416;52.182;7.650;2022-10-26T02:33:40;4.97;;;3.70;;
12703;SDS011;6416;52.182;7.650;2022-10-26T02:36:14;7.70;;;3.70;;
12703;SDS011;6416;52.182;7.650;2022-10-26T02:38:43;4.17;;;3.77;;
12703;SDS011;6416;52.182;7.650;2022-10-26T02:41:10;6.53;;;3.70;;
12703;SDS011;6416;52.182;7.650;2022-10-26T02:43:40;4.03;;;3.47;;
12703;SDS011;6416;52.182;7.650;2022-10-26T02:46:23;4.10;;;3.23;;
12703;SDS011;6416;52.182;7.650;2022-10-26T02:48:51;5.87;;;3.30;;
12703;SDS011;6416;52.182;7.650;2022-10-26T02:51:19;4.00;;;3.60;;
12703;SDS011;6416;52.182;7.650;2022-10-26T02:56:29;10.03;;;3.50;;
12703;SDS011;6416;52.182;7.650;2022-10-26T02:59:06;4.97;;;3.17;;
12703;SDS011;6416;52.182;7.650;2022-10-26T03:01:36;4.73;;;3.70;;
12703;SDS011;6416;52.182;7.650;2022-10-26T03:04:03;5.57;;;3.83;;
12703;SDS011;6416;52.182;7.650;2022-10-26T03:06:29;4.23;;;3.43;;
12703;SDS011;6416;52.182;7.650;2022-10-26T03:08:54;7.70;;;3.70;;
12703;SDS011;6416;52.182;7.650;2022-10-26T03:11:20;4.83;;;3.90;;
12703;SDS011;6416;52.182;7.650;2022-10-26T03:13:45;5.80;;;3.63;;
12703;SDS011;6416;52.182;7.650;2022-10-26T03:16:10;3.83;;;3.47;;
12703;SDS011;6416;52.182;7.650;2022-10-26T03:18:36;3.53;;;3.23;;
12703;SDS011;6416;52.182;7.650;2022-10-26T03:21:01;5.47;;;2.87;;
12703;SDS011;6416;52.182;7.650;2022-10-26T03:23:27;3.17;;;2.87;;
12703;SDS011;6416;52.182;7.650;2022-10-26T03:25:56;3.63;;;3.07;;
12703;SDS011;6416;52.182;7.650;2022-10-26T03:28:22;5.13;;;3.07;;
12703;SDS011;6416;52.182;7.650;2022-10-26T03:30:48;4.07;;;2.80;;
12703;SDS011;6416;52.182;7.650;2022-10-26T03:33:13;3.37;;;3.07;;
12703;SDS011;6416;52.182;7.650;2022-10-26T03:35:39;3.23;;;2.90;;
12703;SDS011;6416;52.182;7.650;2022-10-26T03:38:04;3.30;;;3.00;;
12703;SDS011;6416;52.182;7.650;2022-10-26T03:40:30;2.87;;;2.67;;
12703;SDS011;6416;52.182;7.650;2022-10-26T03:42:55;2.63;;;2.43;;
12703;SDS011;6416;52.182;7.650;2022-10-26T03:45:21;5.87;;;3.07;;
12703;SDS011;6416;52.182;7.650;2022-10-26T03:47:47;4.07;;;2.87;;
12703;SDS011;6416;52.182;7.650;2022-10-26T03:50:13;3.27;;;2.60;;
12703;SDS011;6416;52.182;7.650;2022-10-26T03:52:41;3.10;;;2.80;;
12703;SDS011;6416;52.182;7.650;2022-10-26T03:55:07;3.97;;;2.87;;
12703;SDS011;6416;52.182;7.650;2022-10-26T03:57:33;3.27;;;2.67;;
12703;SDS011;6416;52.182;7.650;2022-10-26T03:59:58;6.30;;;2.60;;
12703;SDS011;6416;52.182;7.650;2022-10-26T04:02:24;2.90;;;2.57;;
12703;SDS011;6416;52.182;7.650;2022-10-26T04:04:49;3.43;;;2.93;;
12703;SDS011;6416;52.182;7.650;2022-10-26T04:07:15;4.33;;;2.60;;
12703;SDS011;6416;52.182;7.650;2022-10-26T04:09:41;2.57;;;2.17;;
12703;SDS011;6416;52.182;7.650;2022-10-26T04:12:06;3.13;;;2.53;;
12703;SDS011;6416;52.182;7.650;2022-10-26T04:14:31;2.60;;;2.40;;
12703;SDS011;6416;52.182;7.650;2022-10-26T04:16:57;3.67;;;2.93;;
12703;SDS011;6416;52.182;7.650;2022-10-26T04:19:22;5.23;;;3.50;;
12703;SDS011;6416;52.182;7.650;2022-10-26T04:21:49;2.73;;;2.53;;
12703;SDS011;6416;52.182;7.650;2022-10-26T04:24:16;3.73;;;2.63;;
12703;SDS011;6416;52.182;7.650;2022-10-26T04:26:41;4.83;;;3.20;;
12703;SDS011;6416;52.182;7.650;2022-10-26T04:29:07;3.43;;;2.23;;
12703;SDS011;6416;52.182;7.650;2022-10-26T04:31:32;3.97;;;2.30;;
12703;SDS011;6416;52.182;7.650;2022-10-26T04:33:58;2.90;;;2.20;;
12703;SDS011;6416;52.182;7.650;2022-10-26T04:36:23;4.53;;;2.77;;
12703;SDS011;6416;52.182;7.650;2022-10-26T04:38:48;4.13;;;2.77;;
12703;SDS011;6416;52.182;7.650;2022-10-26T04:41:14;2.10;;;1.90;;
12703;SDS011;6416;52.182;7.650;2022-10-26T04:43:40;3.03;;;2.63;;
12703;SDS011;6416;52.182;7.650;2022-10-26T04:46:05;5.80;;;4.80;;
12703;SDS011;6416;52.182;7.650;2022-10-26T04:48:31;2.50;;;2.30;;
12703;SDS011;6416;52.182;7.650;2022-10-26T04:50:59;3.63;;;2.73;;
12703;SDS011;6416;52.182;7.650;2022-10-26T04:53:25;2.47;;;2.27;;
12703;SDS011;6416;52.182;7.650;2022-10-26T04:55:55;3.60;;;2.80;;
12703;SDS011;6416;52.182;7.650;2022-10-26T04:58:24;4.20;;;2.60;;
12703;SDS011;6416;52.182;7.650;2022-10-26T05:00:50;6.23;;;2.40;;
12703;SDS011;6416;52.182;7.650;2022-10-26T05:03:16;2.47;;;2.27;;
12703;SDS011;6416;52.182;7.650;2022-10-26T05:05:41;2.33;;;2.13;;
12703;SDS011;6416;52.182;7.650;2022-10-26T05:08:06;2.47;;;2.23;;
12703;SDS011;6416;52.182;7.650;2022-10-26T05:10:32;2.80;;;2.27;;
12703;SDS011;6416;52.182;7.650;2022-10-26T05:12:58;2.40;;;2.20;;
12703;SDS011;6416;52.182;7.650;2022-10-26T05:15:24;4.40;;;2.47;;
12703;SDS011;6416;52.182;7.650;2022-10-26T05:17:54;2.30;;;2.10;;
12703;SDS011;6416;52.182;7.650;2022-10-26T05:20:20;2.23;;;2.03;;
12703;SDS011;6416;52.182;7.650;2022-10-26T05:22:51;2.43;;;2.23;;
12703;SDS011;6416;52.182;7.650;2022-10-26T05:25:17;3.60;;;2.00;;
12703;SDS011;6416;52.182;7.650;2022-10-26T05:27:42;1.97;;;1.80;;
12703;SDS011;6416;52.182;7.650;2022-10-26T05:30:08;4.90;;;2.47;;
12703;SDS011;6416;52.182;7.650;2022-10-26T05:32:33;2.13;;;2.00;;
12703;SDS011;6416;52.182;7.650;2022-10-26T05:34:59;3.00;;;2.30;;
12703;SDS011;6416;52.182;7.650;2022-10-26T05:37:27;4.80;;;2.27;;
12703;SDS011;6416;52.182;7.650;2022-10-26T05:39:53;3.03;;;2.00;;
12703;SDS011;6416;52.182;7.650;2022-10-26T05:42:18;3.30;;;2.07;;
12703;SDS011;6416;52.182;7.650;2022-10-26T05:44:44;2.07;;;1.87;;
12703;SDS011;6416;52.182;7.650;2022-10-26T05:47:09;3.40;;;2.30;;
12703;SDS011;6416;52.182;7.650;2022-10-26T05:49:35;2.73;;;2.33;;
12703;SDS011;6416;52.182;7.650;2022-10-26T05:52:00;2.60;;;2.10;;
12703;SDS011;6416;52.182;7.650;2022-10-26T05:54:25;2.50;;;2.30;;
12703;SDS011;6416;52.182;7.650;2022-10-26T05:56:51;5.77;;;2.30;;
12703;SDS011;6416;52.182;7.650;2022-10-26T05:59:17;2.60;;;2.27;;
12703;SDS011;6416;52.182;7.650;2022-10-26T06:07:02;3.57;;;2.23;;
12703;SDS011;6416;52.182;7.650;2022-10-26T06:09:33;3.37;;;2.53;;
12703;SDS011;6416;52.182;7.650;2022-10-26T06:11:59;3.53;;;2.60;;
12703;SDS011;6416;52.182;7.650;2022-10-26T06:14:24;2.57;;;2.37;;
12703;SDS011;6416;52.182;7.650;2022-10-26T06:19:56;3.20;;;2.30;;
12703;SDS011;6416;52.182;7.650;2022-10-26T06:30:30;3.53;;;2.30;;
12703;SDS011;6416;52.182;7.650;2022-10-26T06:32:56;2.73;;;2.27;;
12703;SDS011;6416;52.182;7.650;2022-10-26T06:38:09;4.17;;;3.10;;
12703;SDS011;6416;52.182;7.650;2022-10-26T06:40:38;5.97;;;2.50;;
12703;SDS011;6416;52.182;7.650;2022-10-26T06:45:53;3.37;;;2.50;;
12703;SDS011;6416;52.182;7.650;2022-10-26T06:48:26;2.53;;;2.33;;
12703;SDS011;6416;52.182;7.650;2022-10-26T06:50:53;4.57;;;2.53;;
12703;SDS011;6416;52.182;7.650;2022-10-26T06:55:57;2.43;;;2.23;;
12703;SDS011;6416;52.182;7.650;2022-10-26T06:58:24;3.40;;;2.60;;
12703;SDS011;6416;52.182;7.650;2022-10-26T07:00:53;3.80;;;2.90;;
12703;SDS011;6416;52.182;7.650;2022-10-26T07:03:20;4.30;;;2.73;;
12703;SDS011;6416;52.182;7.650;2022-10-26T07:05:45;3.97;;;2.53;;
12703;SDS011;6416;52.182;7.650;2022-10-26T07:08:11;3.30;;;2.97;;
12703;SDS011;6416;52.182;7.650;2022-10-26T07:10:37;4.27;;;2.90;;
12703;SDS011;6416;52.182;7.650;2022-10-26T07:13:04;3.03;;;2.67;;
12703;SDS011;6416;52.182;7.650;2022-10-26T07:15:30;4.43;;;2.87;;
12703;SDS011;6416;52.182;7.650;2022-10-26T07:17:55;4.43;;;2.60;;
12703;SDS011;6416;52.182;7.650;2022-10-26T07:20:21;3.13;;;2.83;;
12703;SDS011;6416;52.182;7.650;2022-10-26T07:22:53;3.13;;;2.83;;
12703;SDS011;6416;52.182;7.650;2022-10-26T07:25:19;3.40;;;2.70;;
12703;SDS011;6416;52.182;7.650;2022-10-26T07:27:46;4.73;;;2.90;;
12703;SDS011;6416;52.182;7.650;2022-10-26T07:30:11;5.63;;;3.00;;
12703;SDS011;6416;52.182;7.650;2022-10-26T07:32:37;2.90;;;2.70;;
12703;SDS011;6416;52.182;7.650;2022-10-26T07:35:02;3.10;;;2.80;;
12703;SDS011;6416;52.182;7.650;2022-10-26T07:37:28;4.40;;;2.87;;
12703;SDS011;6416;52.182;7.650;2022-10-26T07:39:54;3.80;;;2.80;;
12703;SDS011;6416;52.182;7.650;2022-10-26T07:42:19;2.90;;;2.63;;
12703;SDS011;6416;52.182;7.650;2022-10-26T07:44:44;3.83;;;2.60;;
12703;SDS011;6416;52.182;7.650;2022-10-26T07:47:10;3.33;;;2.60;;
12703;SDS011;6416;52.182;7.650;2022-10-26T07:49:36;5.47;;;2.73;;
12703;SDS011;6416;52.182;7.650;2022-10-26T07:52:01;3.73;;;2.40;;
12703;SDS011;6416;52.182;7.650;2022-10-26T07:54:26;3.80;;;2.90;;
12703;SDS011;6416;52.182;7.650;2022-10-26T07:56:52;3.07;;;2.67;;
12703;SDS011;6416;52.182;7.650;2022-10-26T07:59:17;2.90;;;2.53;;
12703;SDS011;6416;52.182;7.650;2022-10-26T08:01:43;4.47;;;2.77;;
12703;SDS011;6416;52.182;7.650;2022-10-26T08:04:09;4.57;;;2.90;;
12703;SDS011;6416;52.182;7.650;2022-10-26T08:06:34;5.13;;;2.50;;
12703;SDS011;6416;52.182;7.650;2022-10-26T08:09:00;3.60;;;2.70;;
12703;SDS011;6416;52.182;7.650;2022-10-26T08:11:25;3.27;;;2.97;;
12703;SDS011;6416;52.182;7.650;2022-10-26T08:13:52;3.23;;;2.53;;
12703;SDS011;6416;52.182;7.650;2022-10-26T08:16:18;3.13;;;2.80;;
12703;SDS011;6416;52.182;7.650;2022-10-26T08:18:43;4.13;;;2.80;;
12703;SDS011;6416;52.182;7.650;2022-10-26T08:21:12;2.80;;;2.50;;
12703;SDS011;6416;52.182;7.650;2022-10-26T08:23:38;3.60;;;2.67;;
12703;SDS011;6416;52.182;7.650;2022-10-26T08:26:04;4.03;;;2.40;;
12703;SDS011;6416;52.182;7.650;2022-10-26T08:28:29;3.00;;;2.57;;
12703;SDS011;6416;52.182;7.650;2022-10-26T08:30:58;8.77;;;2.43;;
12703;SDS011;6416;52.182;7.650;2022-10-26T08:33:24;2.80;;;2.40;;
12703;SDS011;6416;52.182;7.650;2022-10-26T08:35:56;4.50;;;2.57;;
12703;SDS011;6416;52.182;7.650;2022-10-26T08:38:32;2.43;;;2.23;;
12703;SDS011;6416;52.182;7.650;2022-10-26T08:40:58;4.00;;;2.50;;
12703;SDS011;6416;52.182;7.650;2022-10-26T08:43:36;9.70;;;2.70;;
12703;SDS011;6416;52.182;7.650;2022-10-26T08:46:08;3.43;;;2.40;;
12703;SDS011;6416;52.182;7.650;2022-10-26T08:48:54;2.77;;;2.33;;
12703;SDS011;6416;52.182;7.650;2022-10-26T08:51:28;3.35;;;2.55;;
12703;SDS011;6416;52.182;7.650;2022-10-26T08:53:57;2.55;;;2.35;;
12703;SDS011;6416;52.182;7.650;2022-10-26T08:56:26;4.35;;;2.20;;
12703;SDS011;6416;52.182;7.650;2022-10-26T09:01:59;4.65;;;1.75;;
12703;SDS011;6416;52.182;7.650;2022-10-26T09:04:25;2.10;;;1.65;;
12703;SDS011;6416;52.182;7.650;2022-10-26T09:07:14;4.35;;;1.60;;
12703;SDS011;6416;52.182;7.650;2022-10-26T09:10:15;2.40;;;1.90;;
12703;SDS011;6416;52.182;7.650;2022-10-26T09:12:47;5.68;;;1.80;;
12703;SDS011;6416;52.182;7.650;2022-10-26T09:16:06;3.25;;;1.77;;
12703;SDS011;6416;52.182;7.650;2022-10-26T09:18:41;5.50;;;2.20;;
12703;SDS011;6416;52.182;7.650;2022-10-26T09:26:38;3.28;;;1.88;;
12703;SDS011;6416;52.182;7.650;2022-10-26T09:29:20;5.38;;;1.90;;
12703;SDS011;6416;52.182;7.650;2022-10-26T09:31:50;3.00;;;1.90;;
12703;SDS011;6416;52.182;7.650;2022-10-26T09:34:21;3.22;;;1.55;;
12703;SDS011;6416;52.182;7.650;2022-10-26T09:36:50;4.70;;;2.17;;
12703;SDS011;6416;52.182;7.650;2022-10-26T09:39:19;3.28;;;1.63;;
12703;SDS011;6416;52.182;7.650;2022-10-26T09:41:59;3.25;;;1.50;;
12703;SDS011;6416;52.182;7.650;2022-10-26T09:44:45;2.25;;;1.25;;
12703;SDS011;6416;52.182;7.650;2022-10-26T09:47:22;2.13;;;1.48;;
12703;SDS011;6416;52.182;7.650;2022-10-26T09:49:55;7.22;;;1.70;;
12703;SDS011;6416;52.182;7.650;2022-10-26T09:52:42;1.80;;;1.48;;
12703;SDS011;6416;52.182;7.650;2022-10-26T09:55:11;3.17;;;1.50;;
12703;SDS011;6416;52.182;7.650;2022-10-26T09:57:38;4.65;;;1.80;;
12703;SDS011;6416;52.182;7.650;2022-10-26T10:00:10;2.22;;;1.30;;
12703;SDS011;6416;52.182;7.650;2022-10-26T10:02:44;2.05;;;1.48;;
12703;SDS011;6416;52.182;7.650;2022-10-26T10:05:28;2.38;;;1.27;;
12703;SDS011;6416;52.182;7.650;2022-10-26T10:08:14;2.38;;;1.40;;
12703;SDS011;6416;52.182;7.650;2022-10-26T10:10:58;3.30;;;1.23;;
12703;SDS011;6416;52.182;7.650;2022-10-26T10:13:25;4.75;;;1.58;;
12703;SDS011;6416;52.182;7.650;2022-10-26T10:16:01;2.85;;;1.55;;
12703;SDS011;6416;52.182;7.650;2022-10-26T10:18:38;2.70;;;1.50;;
12703;SDS011;6416;52.182;7.650;2022-10-26T10:21:05;1.98;;;1.30;;
12703;SDS011;6416;52.182;7.650;2022-10-26T10:23:36;2.92;;;1.92;;
12703;SDS011;6416;52.182;7.650;2022-10-26T10:26:12;2.70;;;1.70;;
12703;SDS011;6416;52.182;7.650;2022-10-26T10:28:41;3.30;;;2.10;;
12703;SDS011;6416;52.182;7.650;2022-10-26T10:31:28;2.83;;;1.60;;
12703;SDS011;6416;52.182;7.650;2022-10-26T10:33:54;2.28;;;1.50;;
12703;SDS011;6416;52.182;7.650;2022-10-26T10:36:20;1.95;;;1.65;;
12703;SDS011;6416;52.182;7.650;2022-10-26T10:38:48;2.83;;;1.63;;
12703;SDS011;6416;52.182;7.650;2022-10-26T10:41:29;2.88;;;1.50;;
12703;SDS011;6416;52.182;7.650;2022-10-26T10:44:21;4.65;;;1.50;;
12703;SDS011;6416;52.182;7.650;2022-10-26T10:46:58;2.58;;;1.30;;
12703;SDS011;6416;52.182;7.650;2022-10-26T10:49:29;2.47;;;1.40;;
12703;SDS011;6416;52.182;7.650;2022-10-26T10:51:55;2.03;;;1.50;;
12703;SDS011;6416;52.182;7.650;2022-10-26T10:54:29;1.45;;;1.20;;
12703;SDS011;6416;52.182;7.650;2022-10-26T10:57:05;3.75;;;1.70;;
12703;SDS011;6416;52.182;7.650;2022-10-26T11:07:41;4.65;;;1.60;;
12703;SDS011;6416;52.182;7.650;2022-10-26T11:10:12;2.53;;;2.03;;
12703;SDS011;6416;52.182;7.650;2022-10-26T11:12:45;4.07;;;1.30;;
12703;SDS011;6416;52.182;7.650;2022-10-26T11:15:17;1.70;;;1.30;;
12703;SDS011;6416;52.182;7.650;2022-10-26T11:17:49;1.58;;;1.20;;
12703;SDS011;6416;52.182;7.650;2022-10-26T11:20:21;2.10;;;1.30;;
12703;SDS011;6416;52.182;7.650;2022-10-26T11:25:18;2.67;;;1.40;;
12703;SDS011;6416;52.182;7.650;2022-10-26T11:27:56;1.90;;;0.95;;
12703;SDS011;6416;52.182;7.650;2022-10-26T11:30:26;1.60;;;1.00;;
12703;SDS011;6416;52.182;7.650;2022-10-26T11:33:39;2.90;;;1.00;;
12703;SDS011;6416;52.182;7.650;2022-10-26T11:39:04;2.55;;;1.10;;
12703;SDS011;6416;52.182;7.650;2022-10-26T11:41:39;2.15;;;1.10;;
12703;SDS011;6416;52.182;7.650;2022-10-26T11:44:23;2.53;;;1.00;;
12703;SDS011;6416;52.182;7.650;2022-10-26T11:46:54;3.28;;;1.08;;
12703;SDS011;6416;52.182;7.650;2022-10-26T11:49:41;2.97;;;0.90;;
12703;SDS011;6416;52.182;7.650;2022-10-26T11:52:15;2.13;;;1.08;;
12703;SDS011;6416;52.182;7.650;2022-10-26T11:54:54;3.95;;;1.23;;
12703;SDS011;6416;52.182;7.650;2022-10-26T11:57:23;2.75;;;1.05;;
12703;SDS011;6416;52.182;7.650;2022-10-26T12:00:00;1.48;;;1.00;;
12703;SDS011;6416;52.182;7.650;2022-10-26T12:02:28;2.33;;;1.25;;
12703;SDS011;6416;52.182;7.650;2022-10-26T12:04:57;2.40;;;1.10;;
12703;SDS011;6416;52.182;7.650;2022-10-26T12:07:30;5.38;;;1.20;;
12703;SDS011;6416;52.182;7.650;2022-10-26T12:09:57;2.90;;;1.25;;
12703;SDS011;6416;52.182;7.650;2022-10-26T12:20:54;2.70;;;1.27;;
12703;SDS011;6416;52.182;7.650;2022-10-26T12:23:25;1.35;;;0.90;;
12703;SDS011;6416;52.182;7.650;2022-10-26T12:25:50;3.50;;;1.15;;
12703;SDS011;6416;52.182;7.650;2022-10-26T12:34:12;3.08;;;1.00;;
12703;SDS011;6416;52.182;7.650;2022-10-26T12:42:33;1.98;;;1.20;;
12703;SDS011;6416;52.182;7.650;2022-10-26T12:47:09;1.67;;;1.10;;
12703;SDS011;6416;52.182;7.650;2022-10-26T13:08:56;2.38;;;0.93;;
12703;SDS011;6416;52.182;7.650;2022-10-26T13:14:08;1.95;;;1.10;;
12703;SDS011;6416;52.182;7.650;2022-10-26T13:16:45;2.85;;;1.17;;
12703;SDS011;6416;52.182;7.650;2022-10-26T13:21:57;2.70;;;1.23;;
12703;SDS011;6416;52.182;7.650;2022-10-26T13:24:25;3.47;;;1.30;;
12703;SDS011;6416;52.182;7.650;2022-10-26T13:29:31;2.30;;;1.02;;
12703;SDS011;6416;52.182;7.650;2022-10-26T13:32:17;4.57;;;1.45;;
12703;SDS011;6416;52.182;7.650;2022-10-26T13:34:43;2.30;;;1.15;;
12703;SDS011;6416;52.182;7.650;2022-10-26T13:37:18;3.03;;;1.40;;
12703;SDS011;6416;52.182;7.650;2022-10-26T13:39:46;1.75;;;1.05;;
12703;SDS011;6416;52.182;7.650;2022-10-26T13:42:15;2.70;;;1.40;;
12703;SDS011;6416;52.182;7.650;2022-10-26T13:50:39;4.50;;;2.00;;
12703;SDS011;6416;52.182;7.650;2022-10-26T13:55:53;2.60;;;1.63;;
12703;SDS011;6416;52.182;7.650;2022-10-26T13:59:26;4.55;;;2.30;;
12703;SDS011;6416;52.182;7.650;2022-10-26T14:01:26;3.20;;;1.80;;
12703;SDS011;6416;52.182;7.650;2022-10-26T14:03:51;4.20;;;2.08;;
12703;SDS011;6416;52.182;7.650;2022-10-26T14:08:45;2.95;;;1.65;;
12703;SDS011;6416;52.182;7.650;2022-10-26T14:11:15;3.47;;;1.73;;
12703;SDS011;6416;52.182;7.650;2022-10-26T14:13:43;4.35;;;1.77;;
12703;SDS011;6416;52.182;7.650;2022-10-26T14:16:11;2.78;;;1.52;;
12703;SDS011;6416;52.182;7.650;2022-10-26T14:18:39;5.57;;;1.65;;
12703;SDS011;6416;52.182;7.650;2022-10-26T14:21:12;7.40;;;1.90;;
12703;SDS011;6416;52.182;7.650;2022-10-26T14:23:56;2.85;;;1.60;;
12703;SDS011;6416;52.182;7.650;2022-10-26T14:26:24;2.80;;;1.50;;
12703;SDS011;6416;52.182;7.650;2022-10-26T14:28:59;4.20;;;2.10;;
12703;SDS011;6416;52.182;7.650;2022-10-26T14:31:29;4.78;;;1.90;;
12703;SDS011;6416;52.182;7.650;2022-10-26T14:33:56;4.35;;;2.30;;
12703;SDS011;6416;52.182;7.650;2022-10-26T14:36:35;6.70;;;1.90;;
12703;SDS011;6416;52.182;7.650;2022-10-26T14:41:49;5.75;;;1.80;;
12703;SDS011;6416;52.182;7.650;2022-10-26T14:44:18;3.47;;;1.65;;
12703;SDS011;6416;52.182;7.650;2022-10-26T14:46:45;3.60;;;1.80;;
12703;SDS011;6416;52.182;7.650;2022-10-26T14:49:18;3.70;;;1.80;;
12703;SDS011;6416;52.182;7.650;2022-10-26T14:51:57;4.55;;;1.63;;
12703;SDS011;6416;52.182;7.650;2022-10-26T14:54:24;4.00;;;1.85;;
12703;SDS011;6416;52.182;7.650;2022-10-26T14:56:52;4.47;;;1.70;;
12703;SDS011;6416;52.182;7.650;2022-10-26T14:59:27;3.00;;;1.55;;
12703;SDS011;6416;52.182;7.650;2022-10-26T15:01:55;1.85;;;1.60;;
12703;SDS011;6416;52.182;7.650;2022-10-26T15:04:35;4.60;;;1.70;;
12703;SDS011;6416;52.182;7.650;2022-10-26T15:07:14;4.38;;;1.60;;
12703;SDS011;6416;52.182;7.650;2022-10-26T15:09:45;3.17;;;1.50;;
12703;SDS011;6416;52.182;7.650;2022-10-26T15:15:07;3.05;;;1.60;;
12703;SDS011;6416;52.182;7.650;2022-10-26T15:17:35;1.80;;;1.42;;
12703;SDS011;6416;52.182;7.650;2022-10-26T15:20:04;2.47;;;1.58;;
12703;SDS011;6416;52.182;7.650;2022-10-26T15:22:31;1.90;;;1.35;;
12703;SDS011;6416;52.182;7.650;2022-10-26T15:24:59;4.32;;;1.67;;
12703;SDS011;6416;52.182;7.650;2022-10-26T15:27:29;3.63;;;2.28;;
12703;SDS011;6416;52.182;7.650;2022-10-26T15:30:09;4.30;;;1.65;;
12703;SDS011;6416;52.182;7.650;2022-10-26T15:32:50;3.25;;;1.65;;
12703;SDS011;6416;52.182;7.650;2022-10-26T15:35:24;3.85;;;1.60;;
12703;SDS011;6416;52.182;7.650;2022-10-26T15:37:54;2.45;;;1.50;;
12703;SDS011;6416;52.182;7.650;2022-10-26T15:40:20;3.03;;;1.83;;
12703;SDS011;6416;52.182;7.650;2022-10-26T15:42:51;3.25;;;1.73;;
12703;SDS011;6416;52.182;7.650;2022-10-26T15:45:24;2.90;;;1.65;;
12703;SDS011;6416;52.182;7.650;2022-10-26T15:47:52;3.22;;;1.50;;
12703;SDS011;6416;52.182;7.650;2022-10-26T15:50:21;4.13;;;1.60;;
12703;SDS011;6416;52.182;7.650;2022-10-26T15:52:49;2.65;;;1.50;;
12703;SDS011;6416;52.182;7.650;2022-10-26T15:55:18;3.42;;;1.50;;
12703;SDS011;6416;52.182;7.650;2022-10-26T15:57:44;2.13;;;1.58;;
12703;SDS011;6416;52.182;7.650;2022-10-26T16:00:13;3.60;;;2.10;;
12703;SDS011;6416;52.182;7.650;2022-10-26T16:02:40;2.85;;;1.52;;
12703;SDS011;6416;52.182;7.650;2022-10-26T16:05:07;2.45;;;1.40;;
12703;SDS011;6416;52.182;7.650;2022-10-26T16:07:33;3.40;;;1.52;;
12703;SDS011;6416;52.182;7.650;2022-10-26T16:09:59;2.25;;;1.63;;
12703;SDS011;6416;52.182;7.650;2022-10-26T16:12:24;2.92;;;1.60;;
12703;SDS011;6416;52.182;7.650;2022-10-26T16:14:50;2.95;;;1.58;;
12703;SDS011;6416;52.182;7.650;2022-10-26T16:17:15;3.35;;;1.52;;
12703;SDS011;6416;52.182;7.650;2022-10-26T16:19:44;2.08;;;1.55;;
12703;SDS011;6416;52.182;7.650;2022-10-26T16:22:11;3.30;;;1.58;;
12703;SDS011;6416;52.182;7.650;2022-10-26T16:24:36;3.17;;;1.70;;
12703;SDS011;6416;52.182;7.650;2022-10-26T16:27:02;3.28;;;1.70;;
12703;SDS011;6416;52.182;7.650;2022-10-26T16:29:28;2.78;;;1.60;;
12703;SDS011;6416;52.182;7.650;2022-10-26T16:31:54;4.22;;;1.70;;
12703;SDS011;6416;52.182;7.650;2022-10-26T16:34:20;3.58;;;1.85;;
12703;SDS011;6416;52.182;7.650;2022-10-26T16:36:45;3.13;;;1.58;;
12703;SDS011;6416;52.182;7.650;2022-10-26T16:39:11;2.85;;;1.70;;
12703;SDS011;6416;52.182;7.650;2022-10-26T16:41:36;1.70;;;1.50;;
12703;SDS011;6416;52.182;7.650;2022-10-26T16:44:02;3.58;;;1.95;;
12703;SDS011;6416;52.182;7.650;2022-10-26T16:46:27;2.78;;;1.77;;
12703;SDS011;6416;52.182;7.650;2022-10-26T16:48:53;6.53;;;1.55;;
12703;SDS011;6416;52.182;7.650;2022-10-26T16:51:20;4.70;;;1.50;;
12703;SDS011;6416;52.182;7.650;2022-10-26T16:53:47;4.55;;;1.88;;
12703;SDS011;6416;52.182;7.650;2022-10-26T16:56:15;3.00;;;1.50;;
12703;SDS011;6416;52.182;7.650;2022-10-26T16:58:42;2.70;;;1.45;;
12703;SDS011;6416;52.182;7.650;2022-10-26T17:01:08;2.03;;;1.50;;
12703;SDS011;6416;52.182;7.650;2022-10-26T17:03:35;4.53;;;1.48;;
12703;SDS011;6416;52.182;7.650;2022-10-26T17:06:02;2.83;;;1.67;;
12703;SDS011;6416;52.182;7.650;2022-10-26T17:08:29;4.00;;;1.90;;
12703;SDS011;6416;52.182;7.650;2022-10-26T17:13:29;3.22;;;2.17;;
12703;SDS011;6416;52.182;7.650;2022-10-26T17:15:59;5.18;;;2.30;;
12703;SDS011;6416;52.182;7.650;2022-10-26T17:18:25;2.00;;;1.80;;
12703;SDS011;6416;52.182;7.650;2022-10-26T17:20:51;6.15;;;2.25;;
12703;SDS011;6416;52.182;7.650;2022-10-26T17:23:16;3.47;;;1.63;;
12703;SDS011;6416;52.182;7.650;2022-10-26T17:25:42;2.22;;;1.65;;
12703;SDS011;6416;52.182;7.650;2022-10-26T17:28:08;4.90;;;1.85;;
12703;SDS011;6416;52.182;7.650;2022-10-26T17:30:33;3.50;;;1.85;;
12703;SDS011;6416;52.182;7.650;2022-10-26T17:32:59;2.17;;;1.58;;
12703;SDS011;6416;52.182;7.650;2022-10-26T17:35:24;4.50;;;1.90;;